createdAt,value
2018-05-16T00:02:11.542Z,26.33
2018-05-16T00:04:39.839Z,26.77
2018-05-16T00:07:08.538Z,23.33
2018-05-16T00:09:36.881Z,22.70
2018-05-16T00:12:05.430Z,24.77
2018-05-16T00:14:33.830Z,30.10
2018-05-16T00:17:02.809Z,26.40
2018-05-16T00:19:31.115Z,29.07
2018-05-16T00:21:59.724Z,28.13
2018-05-16T00:24:28.031Z,30.63
2018-05-16T00:26:56.335Z,28.77
2018-05-16T00:29:24.663Z,30.50
2018-05-16T00:31:54.232Z,33.63
2018-05-16T00:34:23.439Z,27.47
2018-05-16T00:36:51.876Z,29.80
2018-05-16T00:39:21.675Z,29.83
2018-05-16T00:41:50.602Z,28.97
2018-05-16T00:44:18.899Z,27.23
2018-05-16T00:46:47.271Z,31.73
2018-05-16T00:49:15.774Z,32.37
2018-05-16T00:51:44.058Z,31.43
2018-05-16T00:54:13.649Z,29.30
2018-05-16T00:56:42.423Z,28.80
2018-05-16T00:59:11.775Z,31.73
2018-05-16T02:40:22.763Z,47.50
2018-05-16T02:42:52.009Z,46.00
2018-05-16T02:45:20.497Z,48.80
2018-05-16T02:47:49.111Z,58.87
2018-05-16T02:50:17.484Z,55.07
2018-05-16T02:52:46.199Z,57.07
2018-05-16T02:55:15.130Z,50.47
2018-05-16T02:57:43.548Z,44.17
2018-05-16T03:00:11.836Z,50.43
2018-05-16T03:02:40.721Z,48.13
2018-05-16T03:05:09.023Z,51.43
2018-05-16T03:07:37.454Z,57.83
2018-05-16T03:10:05.780Z,54.53
2018-05-16T03:12:34.530Z,59.33
2018-05-16T03:15:02.820Z,57.80
2018-05-16T03:17:31.491Z,59.43
2018-05-16T03:20:00.039Z,53.20
2018-05-16T03:22:28.360Z,56.40
2018-05-16T03:24:57.175Z,73.87
2018-05-16T03:27:25.488Z,68.57
2018-05-16T03:29:53.782Z,57.93
2018-05-16T03:32:22.151Z,52.33
2018-05-16T03:34:50.454Z,57.77
2018-05-16T03:37:19.143Z,55.37
2018-05-16T03:39:47.983Z,49.30
2018-05-16T03:42:16.518Z,58.43
2018-05-16T03:44:45.028Z,61.50
2018-05-16T03:47:13.329Z,55.03
2018-05-16T03:49:41.870Z,60.60
2018-05-16T03:52:10.167Z,64.60
2018-05-16T03:54:38.459Z,65.43
2018-05-16T04:10:43.533Z,69.07
2018-05-16T04:13:12.367Z,59.27
2018-05-16T04:15:40.660Z,71.00
2018-05-16T04:18:09.469Z,56.27
2018-05-16T04:20:38.958Z,47.07
2018-05-16T04:23:07.259Z,57.63
2018-05-16T04:25:35.782Z,54.77
2018-05-16T04:28:04.074Z,58.67
2018-05-16T04:30:32.872Z,55.30
2018-05-16T04:33:01.207Z,68.40
2018-05-16T04:35:29.534Z,56.70
2018-05-16T04:37:57.810Z,48.80
2018-05-16T04:40:26.235Z,45.63
2018-05-16T04:42:55.002Z,47.50
2018-05-16T04:45:23.567Z,50.10
2018-05-16T04:47:51.921Z,49.00
2018-05-16T04:50:20.228Z,43.00
2018-05-16T04:52:49.102Z,53.20
2018-05-16T04:55:17.411Z,43.20
2018-05-16T04:57:45.787Z,46.17
2018-05-16T05:00:14.859Z,39.10
2018-05-16T05:02:43.196Z,37.93
2018-05-16T05:05:12.259Z,45.67
2018-05-16T05:07:40.967Z,47.60
2018-05-16T05:10:09.686Z,48.67
2018-05-16T05:12:38.400Z,43.90
2018-05-16T05:15:07.614Z,46.40
2018-05-16T05:17:36.487Z,49.40
2018-05-16T05:20:05.054Z,43.40
2018-05-16T05:22:34.050Z,44.50
2018-05-16T05:25:03.213Z,43.63
2018-05-16T05:27:31.533Z,46.00
2018-05-16T05:30:01.116Z,34.03
2018-05-16T05:32:29.406Z,39.43
2018-05-16T05:34:57.752Z,31.37
2018-05-16T05:37:26.056Z,35.33
2018-05-16T05:39:54.355Z,41.23
2018-05-16T05:42:22.760Z,36.67
2018-05-16T05:44:51.047Z,36.07
2018-05-16T05:47:19.490Z,33.20
2018-05-16T05:49:47.812Z,30.70
2018-05-16T05:52:16.100Z,33.70
2018-05-16T05:54:44.396Z,36.73
2018-05-16T05:57:13.011Z,32.73
2018-05-16T05:59:42.163Z,36.07
2018-05-16T06:38:14.390Z,20.50
2018-05-16T06:40:43.727Z,30.03
2018-05-16T06:43:12.293Z,18.80
2018-05-16T06:45:40.718Z,15.93
2018-05-16T06:48:09.519Z,22.50
2018-05-16T06:50:38.158Z,26.40
2018-05-16T06:53:06.469Z,23.43
2018-05-16T06:55:34.798Z,24.33
2018-05-16T06:58:03.398Z,20.40
2018-05-16T07:00:32.087Z,22.43
2018-05-16T07:03:00.527Z,19.23
2018-05-16T07:05:29.230Z,20.40
2018-05-16T07:07:57.552Z,17.40
2018-05-16T07:10:25.882Z,18.53
2018-05-16T07:12:54.164Z,16.53
2018-05-16T07:15:22.446Z,15.67
2018-05-16T07:17:51.427Z,13.77
2018-05-16T07:20:19.942Z,15.23
2018-05-16T07:22:48.236Z,18.20
2018-05-16T07:25:16.569Z,15.20
2018-05-16T07:27:44.880Z,13.40
2018-05-16T07:30:13.149Z,12.90
2018-05-16T07:32:41.483Z,14.90
2018-05-16T07:35:09.774Z,13.47
2018-05-16T07:37:38.239Z,12.17
2018-05-16T07:40:06.587Z,11.93
2018-05-16T07:42:35.590Z,13.47
2018-05-16T07:45:04.854Z,12.73
2018-05-16T07:47:33.591Z,12.57
2018-05-16T07:50:01.879Z,13.70
2018-05-16T07:52:30.171Z,14.47
2018-05-16T07:54:58.503Z,15.17
2018-05-16T07:57:26.791Z,12.00
2018-05-16T07:59:55.087Z,13.93
2018-05-16T08:02:23.891Z,13.20
2018-05-16T08:04:52.182Z,10.37
2018-05-16T08:07:20.466Z,9.30
2018-05-16T08:09:48.778Z,10.10
2018-05-16T08:12:17.595Z,10.73
2018-05-16T08:14:45.855Z,9.97
2018-05-16T08:17:14.178Z,8.90
2018-05-16T08:19:42.475Z,10.83
2018-05-16T08:22:10.767Z,15.83
2018-05-16T08:24:40.027Z,14.17
2018-05-16T08:27:08.410Z,12.37
2018-05-16T08:29:36.707Z,13.33
2018-05-16T08:32:05.031Z,11.90
2018-05-16T08:34:33.315Z,11.50
2018-05-16T08:37:01.602Z,11.83
2018-05-16T08:39:30.314Z,11.80
2018-05-16T08:41:58.738Z,12.90
2018-05-16T08:44:27.262Z,9.73
2018-05-16T08:46:56.158Z,16.40
2018-05-16T08:49:24.482Z,11.30
2018-05-16T08:51:52.785Z,13.50
2018-05-16T08:54:21.133Z,14.63
2018-05-16T08:56:49.425Z,11.50
2018-05-16T08:59:18.095Z,9.10
2018-05-16T09:01:47.359Z,9.10
2018-05-16T09:04:15.627Z,7.70
2018-05-16T09:06:43.907Z,8.90
2018-05-16T09:09:12.479Z,6.90
2018-05-16T09:11:40.772Z,6.83
2018-05-16T09:14:09.058Z,8.43
2018-05-16T09:16:37.599Z,6.87
2018-05-16T09:19:06.431Z,6.30
2018-05-16T09:21:35.595Z,6.10
2018-05-16T09:24:04.520Z,7.40
2018-05-16T09:26:32.821Z,8.23
2018-05-16T09:29:01.139Z,6.03
2018-05-16T09:31:30.247Z,8.17
2018-05-16T09:33:58.776Z,9.00
2018-05-16T09:36:27.123Z,7.70
2018-05-16T09:38:56.134Z,11.43
2018-05-16T09:41:24.422Z,8.10
2018-05-16T09:43:52.710Z,6.90
2018-05-16T09:46:20.942Z,6.77
2018-05-16T09:48:49.273Z,8.70
2018-05-16T09:51:17.406Z,7.80
2018-05-16T09:53:45.769Z,9.60
2018-05-16T09:56:14.071Z,10.23
2018-05-16T09:58:42.847Z,8.97
2018-05-16T10:01:11.198Z,10.17
2018-05-16T10:03:39.705Z,10.83
2018-05-16T10:06:08.000Z,10.80
2018-05-16T10:08:36.335Z,10.60
2018-05-16T10:11:05.302Z,9.03
2018-05-16T10:13:33.902Z,8.20
2018-05-16T10:16:02.179Z,8.27
2018-05-16T10:18:30.927Z,8.77
2018-05-16T10:20:59.362Z,9.10
2018-05-16T10:23:27.820Z,9.67
2018-05-16T10:25:57.422Z,6.80
2018-05-16T10:28:26.391Z,7.10
2018-05-16T10:30:54.683Z,8.07
2018-05-16T10:33:23.014Z,8.40
2018-05-16T10:35:51.434Z,6.97
2018-05-16T10:38:20.369Z,7.60
2018-05-16T10:40:48.706Z,7.90
2018-05-16T10:43:16.996Z,10.67
2018-05-16T10:45:45.295Z,12.00
2018-05-16T10:48:13.642Z,12.43
2018-05-16T10:50:41.932Z,11.70
2018-05-16T10:53:10.231Z,10.53
2018-05-16T10:55:38.555Z,11.80
2018-05-16T10:58:06.841Z,10.93
2018-05-16T11:00:35.207Z,14.00
2018-05-16T11:03:04.070Z,10.37
2018-05-16T11:05:32.363Z,9.60
2018-05-16T11:08:00.643Z,8.67
2018-05-16T11:10:29.197Z,8.77
2018-05-16T11:12:57.465Z,12.20
2018-05-16T11:15:25.755Z,10.47
2018-05-16T11:17:54.603Z,12.97
2018-05-16T11:20:23.370Z,10.93
2018-05-16T11:22:52.260Z,15.00
2018-05-16T11:25:21.848Z,13.00
2018-05-16T11:27:50.134Z,10.53
2018-05-16T11:30:18.418Z,9.43
2018-05-16T11:32:47.491Z,8.80
2018-05-16T11:35:15.780Z,7.27
2018-05-16T11:37:44.058Z,6.80
2018-05-16T11:40:12.738Z,11.70
2018-05-16T11:42:41.022Z,7.27
2018-05-16T11:45:09.693Z,7.90
2018-05-16T11:47:38.778Z,7.47
2018-05-16T11:50:07.070Z,8.17
2018-05-16T11:52:35.443Z,13.80
2018-05-16T11:55:03.777Z,7.03
2018-05-16T11:57:32.187Z,8.50
2018-05-16T12:00:00.474Z,6.50
2018-05-16T12:02:28.770Z,6.30
2018-05-16T12:04:57.071Z,6.63
2018-05-16T12:07:26.451Z,9.53
2018-05-16T12:09:54.734Z,6.93
2018-05-16T12:12:23.339Z,8.57
2018-05-16T12:14:52.075Z,7.00
2018-05-16T12:17:20.442Z,6.00
2018-05-16T12:19:49.195Z,5.70
2018-05-16T12:22:18.746Z,7.97
2018-05-16T12:24:47.505Z,11.67
2018-05-16T12:27:16.012Z,6.20
2018-05-16T12:29:44.374Z,7.70
2018-05-16T12:32:13.091Z,12.27
2018-05-16T12:34:41.375Z,8.47
2018-05-16T12:37:09.668Z,7.93
2018-05-16T12:39:38.486Z,7.27
2018-05-16T12:42:07.759Z,8.37
2018-05-16T12:44:37.437Z,8.67
2018-05-16T12:47:06.646Z,9.60
2018-05-16T12:49:34.945Z,8.73
2018-05-16T12:52:04.051Z,8.03
2018-05-16T12:54:32.338Z,9.07
2018-05-16T12:57:01.116Z,10.90
2018-05-16T12:59:29.438Z,9.77
2018-05-16T13:01:57.725Z,14.20
2018-05-16T13:04:26.011Z,12.67
2018-05-16T13:06:54.348Z,11.97
2018-05-16T13:09:22.657Z,12.87
2018-05-16T13:11:50.943Z,16.37
2018-05-16T13:14:19.966Z,11.70
2018-05-16T13:16:48.617Z,13.80
2018-05-16T13:19:16.948Z,16.20
2018-05-16T13:21:45.804Z,10.17
2018-05-16T13:24:14.272Z,8.63
2018-05-16T13:26:43.394Z,9.80
2018-05-16T13:29:11.687Z,14.10
2018-05-16T13:31:39.975Z,7.53
2018-05-16T13:34:08.307Z,9.83
2018-05-16T13:36:36.635Z,7.17
2018-05-16T13:39:05.035Z,8.03
2018-05-16T13:41:33.831Z,7.87
2018-05-16T13:44:02.346Z,8.57
2018-05-16T13:46:31.256Z,8.23
2018-05-16T13:49:01.131Z,7.60
2018-05-16T13:51:29.451Z,11.87
2018-05-16T13:53:57.911Z,8.43
2018-05-16T13:56:26.410Z,8.07
2018-05-16T13:58:55.454Z,8.00
2018-05-16T14:01:23.831Z,8.40
2018-05-16T14:03:52.361Z,9.10
2018-05-16T14:06:21.249Z,8.17
2018-05-16T14:08:49.955Z,6.93
2018-05-16T14:11:18.354Z,7.80
2018-05-16T14:13:47.068Z,10.13
2018-05-16T14:16:15.449Z,8.77
2018-05-16T14:18:44.015Z,8.23
2018-05-16T14:21:12.672Z,8.23
2018-05-16T14:23:40.950Z,9.23
2018-05-16T14:26:09.527Z,8.80
2018-05-16T14:28:38.714Z,8.07
2018-05-16T14:31:07.003Z,7.93
2018-05-16T14:33:35.343Z,10.50
2018-05-16T14:36:03.639Z,11.17
2018-05-16T14:38:31.930Z,9.57
2018-05-16T14:41:00.583Z,8.73
2018-05-16T14:43:30.135Z,9.67
2018-05-16T14:45:58.343Z,7.80
2018-05-16T14:48:26.632Z,7.97
2018-05-16T14:50:55.104Z,11.47
2018-05-16T14:53:23.390Z,7.30
2018-05-16T14:55:52.803Z,8.70
2018-05-16T14:58:21.143Z,8.10
2018-05-16T15:00:49.418Z,8.07
2018-05-16T15:03:17.734Z,8.07
2018-05-16T15:05:46.546Z,8.00
2018-05-16T15:08:15.061Z,9.07
2018-05-16T15:10:43.354Z,10.47
2018-05-16T15:13:11.811Z,13.10
2018-05-16T15:15:40.091Z,9.83
2018-05-16T15:18:08.887Z,12.00
2018-05-16T15:20:37.480Z,16.10
2018-05-16T15:23:06.308Z,13.30
2018-05-16T15:25:34.586Z,13.47
2018-05-16T15:28:02.902Z,10.80
2018-05-16T15:30:31.182Z,8.67
2018-05-16T15:32:59.490Z,8.60
2018-05-16T15:35:28.503Z,13.27
2018-05-16T15:37:57.019Z,10.77
2018-05-16T15:40:25.302Z,9.70
2018-05-16T15:42:53.612Z,16.53
2018-05-16T15:45:21.903Z,10.23
2018-05-16T15:47:50.211Z,13.97
2018-05-16T15:50:18.495Z,11.47
2018-05-16T15:52:46.806Z,12.57
2018-05-16T15:55:15.535Z,23.07
2018-05-16T15:57:44.078Z,11.40
2018-05-16T16:00:12.747Z,13.90
2018-05-16T16:02:41.401Z,9.00
2018-05-16T16:05:09.827Z,9.00
2018-05-16T16:07:38.135Z,10.27
2018-05-16T16:10:06.429Z,11.10
2018-05-16T16:12:36.539Z,11.80
2018-05-16T16:15:04.831Z,10.00
2018-05-16T16:17:33.756Z,11.23
2018-05-16T16:20:02.598Z,12.13
2018-05-16T16:22:30.976Z,8.47
2018-05-16T16:24:59.987Z,10.70
2018-05-16T16:27:28.294Z,11.63
2018-05-16T16:29:56.804Z,10.20
2018-05-16T16:32:25.135Z,10.73
2018-05-16T16:34:53.419Z,15.20
2018-05-16T16:37:22.280Z,9.97
2018-05-16T16:39:51.523Z,14.20
2018-05-16T16:42:19.811Z,12.00
2018-05-16T16:44:48.120Z,16.27
2018-05-16T16:47:17.122Z,12.97
2018-05-16T16:49:45.411Z,13.90
2018-05-16T16:52:13.702Z,13.60
2018-05-16T16:54:42.268Z,17.73
2018-05-16T16:57:10.632Z,14.40
2018-05-16T16:59:38.731Z,16.73
2018-05-16T17:02:07.043Z,16.00
2018-05-16T17:04:35.331Z,14.43
2018-05-16T17:07:04.275Z,10.17
2018-05-16T17:09:32.677Z,9.30
2018-05-16T17:12:01.739Z,10.07
2018-05-16T17:14:30.067Z,10.27
2018-05-16T17:16:58.724Z,7.70
2018-05-16T17:19:28.237Z,9.37
2018-05-16T17:21:56.527Z,9.47
2018-05-16T17:24:24.820Z,10.30
2018-05-16T17:26:53.153Z,10.53
2018-05-16T17:29:21.431Z,9.60
2018-05-16T17:31:49.786Z,9.33
2018-05-16T17:34:19.096Z,10.20
2018-05-16T17:36:48.197Z,12.20
2018-05-16T17:39:16.975Z,9.30
2018-05-16T17:41:46.256Z,10.20
2018-05-16T17:44:14.623Z,13.20
2018-05-16T17:46:43.323Z,15.63
2018-05-16T17:49:11.819Z,10.03
2018-05-16T17:51:40.236Z,9.23
2018-05-16T17:54:08.804Z,9.70
2018-05-16T17:56:37.082Z,10.10
2018-05-16T17:59:05.407Z,11.40
2018-05-16T18:01:33.699Z,10.83
2018-05-16T18:04:01.991Z,14.97
2018-05-16T18:06:30.389Z,12.50
2018-05-16T18:08:59.066Z,12.23
2018-05-16T18:11:27.954Z,11.40
2018-05-16T18:14:13.854Z,12.70
2018-05-16T18:16:59.961Z,11.80
2018-05-16T18:19:28.487Z,14.40
2018-05-16T18:21:57.727Z,12.83
2018-05-16T18:24:26.234Z,13.60
2018-05-16T18:26:55.051Z,11.50
2018-05-16T18:29:24.598Z,10.07
2018-05-16T18:31:52.929Z,13.70
2018-05-16T18:34:21.383Z,15.10
2018-05-16T18:36:50.259Z,14.10
2018-05-16T18:39:19.259Z,11.73
2018-05-16T18:41:47.548Z,19.33
2018-05-16T18:44:15.835Z,12.20
2018-05-16T18:46:44.178Z,14.40
2018-05-16T18:49:12.533Z,18.40
2018-05-16T18:51:40.953Z,16.70
2018-05-16T18:54:10.698Z,15.20
2018-05-16T18:56:39.396Z,18.10
2018-05-16T18:59:07.687Z,20.00
2018-05-16T19:01:36.294Z,17.90
2018-05-16T19:04:05.387Z,22.40
2018-05-16T19:06:34.416Z,23.43
2018-05-16T19:09:02.979Z,27.00
2018-05-16T19:11:31.322Z,29.00
2018-05-16T19:14:00.130Z,36.80
2018-05-16T19:16:28.427Z,34.03
2018-05-16T19:18:56.766Z,32.97
2018-05-16T19:21:25.195Z,36.87
2018-05-16T19:23:54.072Z,29.40
2018-05-16T19:26:22.495Z,37.07
2018-05-16T19:28:50.773Z,35.20
2018-05-16T19:31:19.120Z,34.97
2018-05-16T19:33:47.498Z,37.07
2018-05-16T19:36:16.750Z,34.47
2018-05-16T19:38:46.196Z,42.13
2018-05-16T19:41:14.578Z,37.13
2018-05-16T19:43:43.610Z,46.70
2018-05-16T19:46:11.934Z,46.87
2018-05-16T19:48:40.230Z,44.80
2018-05-16T19:51:09.353Z,39.17
2018-05-16T19:53:38.347Z,40.50
2018-05-16T19:56:06.659Z,50.80
2018-05-16T19:58:35.019Z,43.97
2018-05-16T20:01:03.554Z,42.00
2018-05-16T20:03:31.855Z,47.03
2018-05-16T20:06:00.195Z,52.77
2018-05-16T20:08:28.495Z,48.30
2018-05-16T20:10:58.528Z,58.00
2018-05-16T20:13:27.363Z,37.70
2018-05-16T20:15:55.666Z,41.60
2018-05-16T20:18:24.543Z,50.83
2018-05-16T20:20:53.155Z,45.40
2018-05-16T20:23:23.882Z,45.40
2018-05-16T20:25:53.516Z,45.40
2018-05-16T20:28:22.158Z,38.77
2018-05-16T20:30:50.654Z,42.87
2018-05-16T20:33:19.012Z,44.67
2018-05-16T20:35:47.315Z,35.67
2018-05-16T20:38:15.671Z,38.67
2018-05-16T20:40:44.546Z,42.57
2018-05-16T20:43:13.568Z,39.47
2018-05-16T20:45:42.266Z,35.73
2018-05-16T20:48:11.242Z,44.40
2018-05-16T20:50:39.633Z,48.40
2018-05-16T20:53:08.367Z,38.87
2018-05-16T20:55:36.655Z,53.47
2018-05-16T20:58:05.048Z,45.50
2018-05-16T21:00:33.471Z,54.37
2018-05-16T21:03:01.763Z,63.80
2018-05-16T21:05:30.202Z,64.50
2018-05-16T21:07:58.497Z,67.37
2018-05-16T21:10:27.170Z,66.23
2018-05-16T21:12:56.391Z,66.03
2018-05-16T21:15:24.743Z,70.13
2018-05-16T21:17:53.836Z,76.30
2018-05-16T21:20:22.392Z,85.47
2018-05-16T21:22:50.718Z,80.60
2018-05-16T21:25:19.934Z,71.43
2018-05-16T21:30:22.799Z,77.53
2018-05-16T21:32:51.406Z,65.97
2018-05-16T21:35:19.706Z,62.20
2018-05-16T21:37:48.051Z,79.50
2018-05-16T21:40:16.350Z,62.93
2018-05-16T21:42:44.777Z,52.90
2018-05-16T21:45:13.675Z,60.67
2018-05-16T21:47:42.862Z,56.60
2018-05-16T21:50:11.199Z,67.93
2018-05-16T21:52:39.498Z,74.37
2018-05-16T21:55:07.970Z,70.93
2018-05-16T21:57:36.438Z,74.97
2018-05-16T22:00:06.051Z,64.10
2018-05-16T22:02:34.630Z,64.70
2018-05-16T22:05:04.871Z,66.07
2018-05-16T22:07:33.219Z,68.17
2018-05-16T22:10:01.746Z,66.90
2018-05-16T22:12:31.490Z,61.57
2018-05-16T22:14:59.663Z,64.73
2018-05-16T22:17:29.095Z,62.63
2018-05-16T22:19:58.112Z,64.30
2018-05-16T22:22:26.406Z,51.40
2018-05-16T22:24:55.331Z,66.60
2018-05-16T22:27:24.442Z,75.20
2018-05-16T22:29:52.742Z,66.80
2018-05-16T22:32:26.710Z,89.67
2018-05-16T22:35:00.523Z,68.13
2018-05-16T22:37:35.159Z,80.77
2018-05-16T22:40:10.503Z,66.40
2018-05-16T22:42:38.190Z,66.20
2018-05-16T22:45:10.058Z,73.80
2018-05-16T22:47:38.630Z,62.83
2018-05-16T22:50:06.931Z,55.70
2018-05-16T22:52:35.222Z,87.47
2018-05-16T22:55:03.903Z,70.53
2018-05-16T22:57:32.578Z,55.00
2018-05-16T23:00:00.914Z,62.27
2018-05-16T23:02:29.533Z,64.57
2018-05-16T23:04:58.594Z,64.27
2018-05-16T23:07:29.011Z,65.13
2018-05-16T23:09:57.315Z,62.57
2018-05-16T23:12:25.611Z,71.73
2018-05-16T23:14:53.950Z,63.90
2018-05-16T23:17:22.356Z,63.17
2018-05-16T23:19:50.656Z,73.40
2018-05-16T23:22:18.759Z,60.37
2018-05-16T23:24:47.161Z,61.00
2018-05-16T23:27:15.992Z,71.93
2018-05-16T23:29:44.338Z,64.37
2018-05-16T23:32:12.638Z,53.07
2018-05-16T23:34:40.946Z,62.30
2018-05-16T23:37:09.266Z,57.70
2018-05-16T23:39:37.562Z,53.43
2018-05-16T23:42:07.302Z,60.93
2018-05-16T23:44:35.907Z,64.70
2018-05-16T23:47:04.334Z,51.47
2018-05-16T23:49:32.705Z,59.97
2018-05-16T23:52:01.271Z,60.03
2018-05-16T23:54:31.239Z,56.10
2018-05-16T23:56:59.535Z,60.17
2018-05-16T23:59:28.219Z,58.77
